sensor_id;sensor_type;location;lat;lon;timestamp;P1;durP1;ratioP1;P2;durP2;ratioP2
62957;SDS011;49056;48.352;10.926;2023-07-08T00:03:47;4.40;;;1.95;;
62957;SDS011;49056;48.352;10.926;2023-07-08T00:09:10;3.83;;;1.85;;
62957;SDS011;49056;48.352;10.926;2023-07-08T00:14:31;2.33;;;1.45;;
62957;SDS011;49056;48.352;10.926;2023-07-08T00:19:51;3.08;;;1.83;;
62957;SDS011;49056;48.352;10.926;2023-07-08T00:25:14;3.22;;;1.33;;
62957;SDS011;49056;48.352;10.926;2023-07-08T00:30:35;3.40;;;1.90;;
62957;SDS011;49056;48.352;10.926;2023-07-08T00:35:55;3.28;;;1.62;;
62957;SDS011;49056;48.352;10.926;2023-07-08T00:41:48;4.22;;;1.80;;
62957;SDS011;49056;48.352;10.926;2023-07-08T00:47:03;2.80;;;1.55;;
62957;SDS011;49056;48.352;10.926;2023-07-08T00:52:26;2.97;;;1.80;;
62957;SDS011;49056;48.352;10.926;2023-07-08T00:57:47;2.37;;;1.35;;
62957;SDS011;49056;48.352;10.926;2023-07-08T01:03:07;3.17;;;1.62;;
62957;SDS011;49056;48.352;10.926;2023-07-08T01:08:28;3.75;;;1.50;;
62957;SDS011;49056;48.352;10.926;2023-07-08T01:13:50;2.62;;;1.27;;
62957;SDS011;49056;48.352;10.926;2023-07-08T01:19:13;3.42;;;1.60;;
62957;SDS011;49056;48.352;10.926;2023-07-08T01:24:35;3.10;;;1.35;;
62957;SDS011;49056;48.352;10.926;2023-07-08T01:29:56;4.28;;;1.77;;
62957;SDS011;49056;48.352;10.926;2023-07-08T01:35:17;3.70;;;1.65;;
62957;SDS011;49056;48.352;10.926;2023-07-08T01:40:38;2.03;;;1.30;;
62957;SDS011;49056;48.352;10.926;2023-07-08T01:45:58;3.37;;;1.77;;
62957;SDS011;49056;48.352;10.926;2023-07-08T01:51:20;2.87;;;1.35;;
62957;SDS011;49056;48.352;10.926;2023-07-08T01:56:42;2.80;;;1.50;;
62957;SDS011;49056;48.352;10.926;2023-07-08T02:02:02;3.10;;;1.63;;
62957;SDS011;49056;48.352;10.926;2023-07-08T02:07:22;4.10;;;1.87;;
62957;SDS011;49056;48.352;10.926;2023-07-08T02:12:43;2.97;;;1.33;;
62957;SDS011;49056;48.352;10.926;2023-07-08T02:18:03;2.80;;;1.48;;
62957;SDS011;49056;48.352;10.926;2023-07-08T02:23:24;2.42;;;1.42;;
62957;SDS011;49056;48.352;10.926;2023-07-08T02:28:45;2.75;;;1.33;;
62957;SDS011;49056;48.352;10.926;2023-07-08T02:34:05;2.43;;;1.37;;
62957;SDS011;49056;48.352;10.926;2023-07-08T02:39:25;3.15;;;1.37;;
62957;SDS011;49056;48.352;10.926;2023-07-08T02:44:46;2.80;;;1.55;;
62957;SDS011;49056;48.352;10.926;2023-07-08T02:50:07;2.67;;;1.30;;
62957;SDS011;49056;48.352;10.926;2023-07-08T02:55:27;2.90;;;1.35;;
62957;SDS011;49056;48.352;10.926;2023-07-08T03:00:51;2.28;;;1.30;;
62957;SDS011;49056;48.352;10.926;2023-07-08T03:06:12;2.00;;;1.23;;
62957;SDS011;49056;48.352;10.926;2023-07-08T03:11:32;3.75;;;1.65;;
62957;SDS011;49056;48.352;10.926;2023-07-08T03:16:52;2.30;;;1.43;;
62957;SDS011;49056;48.352;10.926;2023-07-08T03:22:13;4.62;;;1.52;;
62957;SDS011;49056;48.352;10.926;2023-07-08T03:27:33;3.23;;;1.57;;
62957;SDS011;49056;48.352;10.926;2023-07-08T03:32:53;2.17;;;1.52;;
62957;SDS011;49056;48.352;10.926;2023-07-08T03:38:15;2.80;;;1.58;;
62957;SDS011;49056;48.352;10.926;2023-07-08T03:43:35;2.90;;;1.30;;
62957;SDS011;49056;48.352;10.926;2023-07-08T03:48:55;2.78;;;1.40;;
62957;SDS011;49056;48.352;10.926;2023-07-08T03:54:17;3.15;;;1.40;;
62957;SDS011;49056;48.352;10.926;2023-07-08T03:59:38;3.37;;;1.40;;
62957;SDS011;49056;48.352;10.926;2023-07-08T04:04:58;2.92;;;1.45;;
62957;SDS011;49056;48.352;10.926;2023-07-08T04:10:18;2.70;;;1.27;;
62957;SDS011;49056;48.352;10.926;2023-07-08T04:15:39;2.35;;;1.27;;
62957;SDS011;49056;48.352;10.926;2023-07-08T04:20:59;1.57;;;1.10;;
62957;SDS011;49056;48.352;10.926;2023-07-08T04:26:20;2.20;;;1.10;;
62957;SDS011;49056;48.352;10.926;2023-07-08T04:31:40;1.70;;;1.17;;
62957;SDS011;49056;48.352;10.926;2023-07-08T04:37:01;2.17;;;1.20;;
62957;SDS011;49056;48.352;10.926;2023-07-08T04:42:21;2.85;;;1.30;;
62957;SDS011;49056;48.352;10.926;2023-07-08T04:47:42;3.37;;;1.60;;
62957;SDS011;49056;48.352;10.926;2023-07-08T04:53:02;2.13;;;1.30;;
62957;SDS011;49056;48.352;10.926;2023-07-08T04:58:22;3.05;;;1.62;;
62957;SDS011;49056;48.352;10.926;2023-07-08T05:03:43;2.42;;;1.20;;
62957;SDS011;49056;48.352;10.926;2023-07-08T05:09:03;2.75;;;1.12;;
62957;SDS011;49056;48.352;10.926;2023-07-08T05:14:23;2.35;;;1.05;;
62957;SDS011;49056;48.352;10.926;2023-07-08T05:19:44;1.95;;;1.08;;
62957;SDS011;49056;48.352;10.926;2023-07-08T05:25:05;2.85;;;1.23;;
62957;SDS011;49056;48.352;10.926;2023-07-08T05:30:26;2.72;;;1.35;;
62957;SDS011;49056;48.352;10.926;2023-07-08T05:35:46;2.70;;;1.92;;
62957;SDS011;49056;48.352;10.926;2023-07-08T05:41:06;1.90;;;1.00;;
62957;SDS011;49056;48.352;10.926;2023-07-08T05:46:27;2.10;;;1.10;;
62957;SDS011;49056;48.352;10.926;2023-07-08T05:51:47;2.65;;;1.33;;
62957;SDS011;49056;48.352;10.926;2023-07-08T05:57:09;2.75;;;1.10;;
62957;SDS011;49056;48.352;10.926;2023-07-08T06:02:29;2.50;;;1.17;;
62957;SDS011;49056;48.352;10.926;2023-07-08T06:07:50;2.37;;;1.40;;
62957;SDS011;49056;48.352;10.926;2023-07-08T06:13:10;2.33;;;1.40;;
62957;SDS011;49056;48.352;10.926;2023-07-08T06:18:31;1.85;;;1.20;;
62957;SDS011;49056;48.352;10.926;2023-07-08T06:23:51;1.98;;;0.98;;
62957;SDS011;49056;48.352;10.926;2023-07-08T06:29:11;2.62;;;1.20;;
62957;SDS011;49056;48.352;10.926;2023-07-08T06:34:32;2.47;;;1.17;;
62957;SDS011;49056;48.352;10.926;2023-07-08T06:39:52;2.10;;;1.20;;
62957;SDS011;49056;48.352;10.926;2023-07-08T06:45:12;2.33;;;1.40;;
62957;SDS011;49056;48.352;10.926;2023-07-08T06:50:33;1.90;;;1.17;;
62957;SDS011;49056;48.352;10.926;2023-07-08T06:55:53;2.87;;;1.53;;
62957;SDS011;49056;48.352;10.926;2023-07-08T07:01:13;2.83;;;1.50;;
62957;SDS011;49056;48.352;10.926;2023-07-08T07:06:34;2.85;;;1.23;;
62957;SDS011;49056;48.352;10.926;2023-07-08T07:11:54;1.87;;;1.13;;
62957;SDS011;49056;48.352;10.926;2023-07-08T07:17:14;1.75;;;0.82;;
62957;SDS011;49056;48.352;10.926;2023-07-08T07:22:35;3.97;;;2.13;;
62957;SDS011;49056;48.352;10.926;2023-07-08T07:27:55;2.65;;;1.25;;
62957;SDS011;49056;48.352;10.926;2023-07-08T07:33:16;2.17;;;1.00;;
62957;SDS011;49056;48.352;10.926;2023-07-08T07:38:36;2.17;;;1.08;;
62957;SDS011;49056;48.352;10.926;2023-07-08T07:43:56;1.98;;;1.37;;
62957;SDS011;49056;48.352;10.926;2023-07-08T07:49:17;2.83;;;1.57;;
62957;SDS011;49056;48.352;10.926;2023-07-08T07:54:38;2.67;;;1.30;;
62957;SDS011;49056;48.352;10.926;2023-07-08T07:59:58;3.08;;;1.70;;
62957;SDS011;49056;48.352;10.926;2023-07-08T08:05:18;3.17;;;1.37;;
62957;SDS011;49056;48.352;10.926;2023-07-08T08:10:39;2.47;;;1.20;;
62957;SDS011;49056;48.352;10.926;2023-07-08T08:15:59;2.10;;;1.37;;
62957;SDS011;49056;48.352;10.926;2023-07-08T08:21:19;3.27;;;1.40;;
62957;SDS011;49056;48.352;10.926;2023-07-08T08:26:41;3.55;;;1.62;;
62957;SDS011;49056;48.352;10.926;2023-07-08T08:32:02;3.05;;;1.33;;
62957;SDS011;49056;48.352;10.926;2023-07-08T08:37:22;2.33;;;1.30;;
62957;SDS011;49056;48.352;10.926;2023-07-08T08:42:53;4.55;;;2.10;;
62957;SDS011;49056;48.352;10.926;2023-07-08T08:48:17;3.78;;;1.83;;
62957;SDS011;49056;48.352;10.926;2023-07-08T08:53:39;2.90;;;1.40;;
62957;SDS011;49056;48.352;10.926;2023-07-08T08:59:17;2.03;;;1.27;;
62957;SDS011;49056;48.352;10.926;2023-07-08T09:04:39;3.00;;;1.80;;
62957;SDS011;49056;48.352;10.926;2023-07-08T09:10:20;2.28;;;1.50;;
62957;SDS011;49056;48.352;10.926;2023-07-08T09:15:43;4.12;;;1.90;;
62957;SDS011;49056;48.352;10.926;2023-07-08T09:21:05;4.00;;;1.58;;
62957;SDS011;49056;48.352;10.926;2023-07-08T09:26:30;2.22;;;1.40;;
62957;SDS011;49056;48.352;10.926;2023-07-08T09:31:51;2.15;;;1.10;;
62957;SDS011;49056;48.352;10.926;2023-07-08T09:37:22;2.47;;;1.48;;
62957;SDS011;49056;48.352;10.926;2023-07-08T09:42:43;4.12;;;1.42;;
62957;SDS011;49056;48.352;10.926;2023-07-08T09:48:04;3.20;;;2.03;;
62957;SDS011;49056;48.352;10.926;2023-07-08T09:53:34;3.55;;;2.03;;
62957;SDS011;49056;48.352;10.926;2023-07-08T09:58:55;3.40;;;1.80;;
62957;SDS011;49056;48.352;10.926;2023-07-08T10:04:15;3.25;;;1.95;;
62957;SDS011;49056;48.352;10.926;2023-07-08T10:09:37;2.83;;;1.67;;
62957;SDS011;49056;48.352;10.926;2023-07-08T10:14:59;3.72;;;1.67;;
62957;SDS011;49056;48.352;10.926;2023-07-08T10:20:20;4.20;;;2.05;;
62957;SDS011;49056;48.352;10.926;2023-07-08T10:25:44;5.15;;;2.42;;
62957;SDS011;49056;48.352;10.926;2023-07-08T10:36:53;3.15;;;1.50;;
62957;SDS011;49056;48.352;10.926;2023-07-08T11:10:12;3.37;;;1.58;;
62957;SDS011;49056;48.352;10.926;2023-07-08T11:15:36;6.10;;;2.12;;
62957;SDS011;49056;48.352;10.926;2023-07-08T11:21:01;3.67;;;1.65;;
62957;SDS011;49056;48.352;10.926;2023-07-08T11:31:42;2.80;;;1.87;;
62957;SDS011;49056;48.352;10.926;2023-07-08T11:37:03;4.25;;;1.77;;
62957;SDS011;49056;48.352;10.926;2023-07-08T11:47:53;3.95;;;1.90;;
62957;SDS011;49056;48.352;10.926;2023-07-08T11:58:50;3.62;;;1.90;;
62957;SDS011;49056;48.352;10.926;2023-07-08T12:09:35;3.87;;;1.90;;
62957;SDS011;49056;48.352;10.926;2023-07-08T12:14:58;4.18;;;2.30;;
62957;SDS011;49056;48.352;10.926;2023-07-08T12:20:35;6.80;;;2.67;;
62957;SDS011;49056;48.352;10.926;2023-07-08T12:25:56;3.22;;;1.60;;
62957;SDS011;49056;48.352;10.926;2023-07-08T12:31:21;4.03;;;1.70;;
62957;SDS011;49056;48.352;10.926;2023-07-08T12:36:43;3.00;;;1.70;;
62957;SDS011;49056;48.352;10.926;2023-07-08T12:42:08;4.07;;;1.35;;
62957;SDS011;49056;48.352;10.926;2023-07-08T12:47:28;3.72;;;1.60;;
62957;SDS011;49056;48.352;10.926;2023-07-08T12:52:48;3.10;;;1.37;;
62957;SDS011;49056;48.352;10.926;2023-07-08T12:58:12;2.15;;;1.25;;
62957;SDS011;49056;48.352;10.926;2023-07-08T13:03:37;3.10;;;1.48;;
62957;SDS011;49056;48.352;10.926;2023-07-08T13:09:02;4.87;;;2.00;;
62957;SDS011;49056;48.352;10.926;2023-07-08T13:14:26;3.65;;;1.67;;
62957;SDS011;49056;48.352;10.926;2023-07-08T13:19:46;3.85;;;1.98;;
62957;SDS011;49056;48.352;10.926;2023-07-08T13:25:09;2.20;;;1.33;;
62957;SDS011;49056;48.352;10.926;2023-07-08T13:30:30;2.58;;;1.37;;
62957;SDS011;49056;48.352;10.926;2023-07-08T13:35:51;2.40;;;1.27;;
62957;SDS011;49056;48.352;10.926;2023-07-08T13:41:17;2.72;;;1.15;;
62957;SDS011;49056;48.352;10.926;2023-07-08T13:46:40;2.75;;;1.37;;
62957;SDS011;49056;48.352;10.926;2023-07-08T13:52:04;4.28;;;1.70;;
62957;SDS011;49056;48.352;10.926;2023-07-08T13:57:32;3.05;;;1.30;;
62957;SDS011;49056;48.352;10.926;2023-07-08T14:02:53;3.30;;;1.40;;
62957;SDS011;49056;48.352;10.926;2023-07-08T14:08:14;2.53;;;1.27;;
62957;SDS011;49056;48.352;10.926;2023-07-08T14:13:35;3.08;;;1.67;;
62957;SDS011;49056;48.352;10.926;2023-07-08T14:18:55;2.25;;;1.58;;
62957;SDS011;49056;48.352;10.926;2023-07-08T14:24:16;3.03;;;1.27;;
62957;SDS011;49056;48.352;10.926;2023-07-08T14:29:37;3.10;;;1.67;;
62957;SDS011;49056;48.352;10.926;2023-07-08T14:34:59;3.67;;;1.53;;
62957;SDS011;49056;48.352;10.926;2023-07-08T14:40:22;3.47;;;1.50;;
62957;SDS011;49056;48.352;10.926;2023-07-08T14:45:48;3.90;;;1.85;;
62957;SDS011;49056;48.352;10.926;2023-07-08T14:56:29;2.13;;;1.23;;
62957;SDS011;49056;48.352;10.926;2023-07-08T15:01:50;3.17;;;1.52;;
62957;SDS011;49056;48.352;10.926;2023-07-08T15:07:10;2.42;;;1.02;;
62957;SDS011;49056;48.352;10.926;2023-07-08T15:12:30;2.55;;;1.23;;
62957;SDS011;49056;48.352;10.926;2023-07-08T15:17:51;2.53;;;1.25;;
62957;SDS011;49056;48.352;10.926;2023-07-08T15:23:12;3.67;;;1.45;;
62957;SDS011;49056;48.352;10.926;2023-07-08T15:33:53;3.50;;;1.27;;
62957;SDS011;49056;48.352;10.926;2023-07-08T15:39:13;2.75;;;1.23;;
62957;SDS011;49056;48.352;10.926;2023-07-08T15:44:34;3.00;;;1.02;;
62957;SDS011;49056;48.352;10.926;2023-07-08T15:49:54;2.42;;;1.10;;
62957;SDS011;49056;48.352;10.926;2023-07-08T15:55:16;2.15;;;1.20;;
62957;SDS011;49056;48.352;10.926;2023-07-08T16:00:37;1.52;;;0.98;;
62957;SDS011;49056;48.352;10.926;2023-07-08T16:05:58;1.83;;;1.10;;
62957;SDS011;49056;48.352;10.926;2023-07-08T16:11:20;2.35;;;1.20;;
62957;SDS011;49056;48.352;10.926;2023-07-08T16:16:43;2.00;;;1.05;;
62957;SDS011;49056;48.352;10.926;2023-07-08T16:22:04;2.23;;;1.03;;
62957;SDS011;49056;48.352;10.926;2023-07-08T16:27:26;1.15;;;0.80;;
62957;SDS011;49056;48.352;10.926;2023-07-08T16:32:47;2.20;;;1.20;;
62957;SDS011;49056;48.352;10.926;2023-07-08T16:38:08;1.83;;;0.95;;
62957;SDS011;49056;48.352;10.926;2023-07-08T16:43:29;2.45;;;1.20;;
62957;SDS011;49056;48.352;10.926;2023-07-08T16:48:50;1.80;;;1.20;;
62957;SDS011;49056;48.352;10.926;2023-07-08T16:54:11;1.10;;;0.73;;
62957;SDS011;49056;48.352;10.926;2023-07-08T16:59:32;1.98;;;1.17;;
62957;SDS011;49056;48.352;10.926;2023-07-08T17:04:53;2.05;;;0.80;;
62957;SDS011;49056;48.352;10.926;2023-07-08T17:10:13;1.95;;;1.05;;
62957;SDS011;49056;48.352;10.926;2023-07-08T17:15:34;2.12;;;1.08;;
62957;SDS011;49056;48.352;10.926;2023-07-08T17:20:57;2.37;;;1.27;;
62957;SDS011;49056;48.352;10.926;2023-07-08T17:26:18;1.95;;;1.08;;
62957;SDS011;49056;48.352;10.926;2023-07-08T17:31:38;1.93;;;1.10;;
62957;SDS011;49056;48.352;10.926;2023-07-08T17:36:59;2.12;;;0.82;;
62957;SDS011;49056;48.352;10.926;2023-07-08T17:42:19;1.60;;;1.02;;
62957;SDS011;49056;48.352;10.926;2023-07-08T17:47:39;2.22;;;0.60;;
62957;SDS011;49056;48.352;10.926;2023-07-08T17:53:00;1.50;;;0.73;;
62957;SDS011;49056;48.352;10.926;2023-07-08T17:58:20;2.12;;;1.00;;
62957;SDS011;49056;48.352;10.926;2023-07-08T18:03:40;1.90;;;0.98;;
62957;SDS011;49056;48.352;10.926;2023-07-08T18:09:01;1.63;;;0.90;;
62957;SDS011;49056;48.352;10.926;2023-07-08T18:14:21;1.33;;;0.82;;
62957;SDS011;49056;48.352;10.926;2023-07-08T18:19:41;1.73;;;0.95;;
62957;SDS011;49056;48.352;10.926;2023-07-08T18:25:04;1.15;;;0.57;;
62957;SDS011;49056;48.352;10.926;2023-07-08T18:30:25;1.75;;;0.80;;
62957;SDS011;49056;48.352;10.926;2023-07-08T18:35:47;2.47;;;0.90;;
62957;SDS011;49056;48.352;10.926;2023-07-08T18:41:16;1.52;;;0.70;;
62957;SDS011;49056;48.352;10.926;2023-07-08T18:46:37;2.17;;;1.00;;
62957;SDS011;49056;48.352;10.926;2023-07-08T18:51:57;1.30;;;0.73;;
62957;SDS011;49056;48.352;10.926;2023-07-08T18:57:18;1.55;;;1.02;;
62957;SDS011;49056;48.352;10.926;2023-07-08T19:02:54;1.42;;;0.73;;
62957;SDS011;49056;48.352;10.926;2023-07-08T19:08:15;1.35;;;0.75;;
62957;SDS011;49056;48.352;10.926;2023-07-08T19:13:36;1.15;;;0.73;;
62957;SDS011;49056;48.352;10.926;2023-07-08T19:18:57;1.60;;;1.00;;
62957;SDS011;49056;48.352;10.926;2023-07-08T19:24:17;2.70;;;1.10;;
62957;SDS011;49056;48.352;10.926;2023-07-08T19:29:38;2.28;;;0.73;;
62957;SDS011;49056;48.352;10.926;2023-07-08T19:34:58;2.40;;;1.15;;
62957;SDS011;49056;48.352;10.926;2023-07-08T19:40:20;2.17;;;1.10;;
62957;SDS011;49056;48.352;10.926;2023-07-08T19:45:41;1.15;;;0.60;;
62957;SDS011;49056;48.352;10.926;2023-07-08T19:51:01;1.45;;;1.23;;
62957;SDS011;49056;48.352;10.926;2023-07-08T19:56:21;1.43;;;0.80;;
62957;SDS011;49056;48.352;10.926;2023-07-08T20:01:42;0.95;;;0.65;;
62957;SDS011;49056;48.352;10.926;2023-07-08T20:07:02;1.98;;;1.17;;
62957;SDS011;49056;48.352;10.926;2023-07-08T20:12:22;2.43;;;0.80;;
62957;SDS011;49056;48.352;10.926;2023-07-08T20:17:43;2.60;;;1.10;;
62957;SDS011;49056;48.352;10.926;2023-07-08T20:23:03;1.90;;;0.98;;
62957;SDS011;49056;48.352;10.926;2023-07-08T20:28:28;2.03;;;1.08;;
62957;SDS011;49056;48.352;10.926;2023-07-08T20:33:49;2.35;;;1.00;;
62957;SDS011;49056;48.352;10.926;2023-07-08T20:39:11;2.30;;;1.27;;
62957;SDS011;49056;48.352;10.926;2023-07-08T20:44:31;1.02;;;0.82;;
62957;SDS011;49056;48.352;10.926;2023-07-08T20:49:52;2.30;;;1.10;;
62957;SDS011;49056;48.352;10.926;2023-07-08T20:55:13;1.35;;;0.80;;
62957;SDS011;49056;48.352;10.926;2023-07-08T21:00:34;3.00;;;0.88;;
62957;SDS011;49056;48.352;10.926;2023-07-08T21:05:54;2.10;;;1.20;;
62957;SDS011;49056;48.352;10.926;2023-07-08T21:11:16;2.08;;;1.10;;
62957;SDS011;49056;48.352;10.926;2023-07-08T21:16:36;2.47;;;1.10;;
62957;SDS011;49056;48.352;10.926;2023-07-08T21:21:56;2.10;;;1.12;;
62957;SDS011;49056;48.352;10.926;2023-07-08T21:27:19;2.30;;;0.98;;
62957;SDS011;49056;48.352;10.926;2023-07-08T21:32:40;2.87;;;1.25;;
62957;SDS011;49056;48.352;10.926;2023-07-08T21:38:00;2.12;;;1.20;;
62957;SDS011;49056;48.352;10.926;2023-07-08T21:43:23;3.55;;;1.17;;
62957;SDS011;49056;48.352;10.926;2023-07-08T21:48:43;2.33;;;1.60;;
62957;SDS011;49056;48.352;10.926;2023-07-08T21:54:04;1.73;;;1.17;;
62957;SDS011;49056;48.352;10.926;2023-07-08T21:59:24;1.35;;;0.80;;
62957;SDS011;49056;48.352;10.926;2023-07-08T22:04:44;2.00;;;0.90;;
62957;SDS011;49056;48.352;10.926;2023-07-08T22:10:05;2.35;;;1.48;;
62957;SDS011;49056;48.352;10.926;2023-07-08T22:15:26;1.90;;;1.17;;
62957;SDS011;49056;48.352;10.926;2023-07-08T22:20:48;2.58;;;1.10;;
62957;SDS011;49056;48.352;10.926;2023-07-08T22:26:09;2.30;;;1.23;;
62957;SDS011;49056;48.352;10.926;2023-07-08T22:31:33;2.30;;;1.40;;
62957;SDS011;49056;48.352;10.926;2023-07-08T22:36:54;1.83;;;1.00;;
62957;SDS011;49056;48.352;10.926;2023-07-08T22:42:15;3.17;;;1.27;;
62957;SDS011;49056;48.352;10.926;2023-07-08T22:47:35;2.72;;;1.42;;
62957;SDS011;49056;48.352;10.926;2023-07-08T22:52:55;1.80;;;1.10;;
62957;SDS011;49056;48.352;10.926;2023-07-08T22:58:20;1.98;;;1.10;;
62957;SDS011;49056;48.352;10.926;2023-07-08T23:03:40;3.50;;;1.58;;
62957;SDS011;49056;48.352;10.926;2023-07-08T23:09:01;2.75;;;1.40;;
62957;SDS011;49056;48.352;10.926;2023-07-08T23:14:22;2.12;;;1.30;;
62957;SDS011;49056;48.352;10.926;2023-07-08T23:19:43;2.22;;;1.23;;
62957;SDS011;49056;48.352;10.926;2023-07-08T23:25:03;2.67;;;1.30;;
62957;SDS011;49056;48.352;10.926;2023-07-08T23:30:23;3.20;;;1.75;;
62957;SDS011;49056;48.352;10.926;2023-07-08T23:35:44;2.80;;;1.33;;
62957;SDS011;49056;48.352;10.926;2023-07-08T23:41:07;2.37;;;1.27;;
62957;SDS011;49056;48.352;10.926;2023-07-08T23:46:29;3.12;;;1.45;;
62957;SDS011;49056;48.352;10.926;2023-07-08T23:51:50;3.25;;;1.52;;
62957;SDS011;49056;48.352;10.926;2023-07-08T23:57:15;1.92;;;1.15;;
